createdAt,value
2022-08-20T00:03:41.358Z,101115.69
2022-08-20T00:07:46.388Z,101117.34
2022-08-20T00:11:47.887Z,101119.28
2022-08-20T00:15:49.690Z,101105.44
2022-08-20T00:19:51.260Z,101094.75
2022-08-20T00:23:54.027Z,101103.69
2022-08-20T00:27:57.162Z,101106.69
2022-08-20T00:31:59.532Z,101099.53
2022-08-20T00:36:06.575Z,101107.66
2022-08-20T00:40:22.918Z,101108.41
2022-08-20T00:44:24.930Z,101124.91
2022-08-20T00:48:31.938Z,101135.34
2022-08-20T00:52:33.729Z,101146.59
2022-08-20T00:56:36.651Z,101149.59
2022-08-20T01:00:42.714Z,101156.50
2022-08-20T01:04:50.103Z,101159.59
2022-08-20T01:08:52.252Z,101158.22
2022-08-20T01:12:59.452Z,101175.16
2022-08-20T01:17:06.238Z,101180.59
2022-08-20T01:21:08.497Z,101177.41
2022-08-20T01:25:16.578Z,101171.44
2022-08-20T01:29:22.577Z,101170.25
2022-08-20T01:33:24.970Z,101158.69
2022-08-20T01:37:31.369Z,101165.88
2022-08-20T01:41:52.368Z,101159.84
2022-08-20T01:45:54.274Z,101168.09
2022-08-20T01:49:59.900Z,101172.06
2022-08-20T01:54:01.620Z,101172.94
2022-08-20T01:58:03.303Z,101160.91
2022-08-20T02:02:05.388Z,101156.84
2022-08-20T02:06:06.926Z,101161.03
2022-08-20T02:10:10.844Z,101171.00
2022-08-20T02:14:12.317Z,101165.47
2022-08-20T02:18:15.460Z,101163.84
2022-08-20T02:22:35.628Z,101171.47
2022-08-20T02:26:39.757Z,101172.72
2022-08-20T02:30:45.347Z,101177.59
2022-08-20T02:34:46.806Z,101167.63
2022-08-20T02:38:48.431Z,101165.59
2022-08-20T02:42:49.923Z,101161.50
2022-08-20T02:46:51.541Z,101158.22
2022-08-20T02:50:56.749Z,101161.59
2022-08-20T02:54:58.216Z,101166.66
2022-08-20T02:58:59.995Z,101165.59
2022-08-20T03:03:01.959Z,101165.56
2022-08-20T03:07:05.926Z,101168.97
2022-08-20T03:11:07.966Z,101171.78
2022-08-20T03:15:17.489Z,101170.34
2022-08-20T03:19:19.667Z,101172.16
2022-08-20T03:23:21.541Z,101167.44
2022-08-20T03:27:24.091Z,101159.56
2022-08-20T03:31:29.671Z,101165.97
2022-08-20T03:35:32.312Z,101156.28
2022-08-20T03:39:34.166Z,101154.53
2022-08-20T03:43:37.351Z,101161.59
2022-08-20T03:47:41.367Z,101170.06
2022-08-20T03:51:57.626Z,101162.31
2022-08-20T03:56:04.448Z,101160.34
2022-08-20T04:00:06.847Z,101165.69
2022-08-20T04:04:14.472Z,101165.69
2022-08-20T04:08:20.552Z,101165.59
2022-08-20T04:12:24.200Z,101166.47
2022-08-20T04:16:27.481Z,101184.81
2022-08-20T04:20:29.043Z,101192.69
2022-08-20T04:24:32.151Z,101187.81
2022-08-20T04:28:34.302Z,101186.63
2022-08-20T04:32:36.811Z,101195.28
2022-08-20T04:36:40.685Z,101202.28
2022-08-20T04:40:54.308Z,101211.88
2022-08-20T04:44:55.748Z,101210.88
2022-08-20T04:48:58.725Z,101225.09
2022-08-20T04:53:00.252Z,101229.78
2022-08-20T04:57:02.184Z,101227.00
2022-08-20T05:01:10.331Z,101234.72
2022-08-20T05:05:13.319Z,101221.22
2022-08-20T05:09:14.788Z,101231.97
2022-08-20T05:13:16.565Z,101239.75
2022-08-20T05:17:18.121Z,101247.38
2022-08-20T05:21:20.861Z,101247.19
2022-08-20T05:25:23.169Z,101249.75
2022-08-20T05:29:25.358Z,101244.84
2022-08-20T05:33:29.938Z,101242.91
2022-08-20T05:37:31.439Z,101248.38
2022-08-20T05:41:34.438Z,101260.41
2022-08-20T05:45:38.340Z,101248.53
2022-08-20T05:49:40.359Z,101254.25
2022-08-20T05:53:41.885Z,101252.19
2022-08-20T05:57:45.649Z,101256.13
2022-08-20T06:01:47.116Z,101256.09
2022-08-20T06:05:48.939Z,101250.78
2022-08-20T06:09:50.502Z,101237.78
2022-08-20T06:13:51.964Z,101231.25
2022-08-20T06:17:58.236Z,101238.44
2022-08-20T06:22:00.864Z,101245.84
2022-08-20T06:26:02.533Z,101243.22
2022-08-20T06:30:04.575Z,101250.56
2022-08-20T06:34:07.385Z,101247.94
2022-08-20T06:38:11.205Z,101252.81
2022-08-20T06:42:13.601Z,101253.78
2022-08-20T06:46:25.252Z,101260.16
2022-08-20T06:50:31.244Z,101272.59
2022-08-20T06:54:34.287Z,101270.44
2022-08-20T06:58:38.831Z,101282.66
2022-08-20T07:02:41.428Z,101290.03
2022-08-20T07:06:43.785Z,101285.63
2022-08-20T07:10:49.796Z,101280.72
2022-08-20T07:14:51.287Z,101286.19
2022-08-20T07:18:52.778Z,101284.38
2022-08-20T07:22:54.318Z,101286.81
2022-08-20T07:26:56.994Z,101287.78
2022-08-20T07:31:17.739Z,101293.66
2022-08-20T07:35:21.975Z,101307.16
2022-08-20T07:39:23.435Z,101303.53
2022-08-20T07:43:26.049Z,101309.56
2022-08-20T07:47:27.588Z,101312.72
2022-08-20T07:51:29.459Z,101312.84
2022-08-20T07:58:06.424Z,101320.44
2022-08-20T08:02:07.887Z,101333.16
2022-08-20T08:06:09.639Z,101326.31
2022-08-20T08:10:19.508Z,101326.97
2022-08-20T08:14:26.644Z,101332.72
2022-08-20T08:18:34.032Z,101331.22
2022-08-20T08:22:36.045Z,101329.75
2022-08-20T08:26:37.619Z,101327.03
2022-08-20T08:30:40.315Z,101325.94
2022-08-20T08:34:41.804Z,101331.22
2022-08-20T08:38:45.267Z,101333.59
2022-08-20T08:42:58.148Z,101339.09
2022-08-20T08:47:18.681Z,101337.91
2022-08-20T08:51:27.990Z,101343.50
2022-08-20T08:55:31.009Z,101333.16
2022-08-20T08:59:58.301Z,101336.78
2022-08-20T09:03:55.987Z,101333.56
2022-08-20T09:07:58.867Z,101343.78
2022-08-20T09:12:07.822Z,101337.34
2022-08-20T09:16:10.304Z,101338.00
2022-08-20T09:20:11.888Z,101348.78
2022-08-20T09:24:13.378Z,101348.25
2022-08-20T09:28:14.859Z,101349.13
2022-08-20T09:32:19.474Z,101356.88
2022-08-20T09:36:32.598Z,101361.00
2022-08-20T09:40:34.786Z,101358.19
2022-08-20T09:44:36.343Z,101356.22
2022-08-20T09:48:37.848Z,101352.47
2022-08-20T09:52:45.534Z,101360.88
2022-08-20T09:56:47.120Z,101356.63
2022-08-20T10:00:48.907Z,101355.66
2022-08-20T10:04:50.705Z,101364.50
2022-08-20T10:08:52.886Z,101355.16
2022-08-20T10:12:55.042Z,101371.38
2022-08-20T10:17:00.681Z,101373.41
2022-08-20T10:21:02.575Z,101379.00
2022-08-20T10:25:05.647Z,101368.78
2022-08-20T10:29:07.135Z,101377.25
2022-08-20T10:33:08.620Z,101377.84
2022-08-20T10:37:18.542Z,101384.38
2022-08-20T10:41:20.187Z,101377.41
2022-08-20T10:45:21.652Z,101370.97
2022-08-20T10:49:23.140Z,101375.47
2022-08-20T10:53:24.603Z,101373.19
2022-08-20T10:57:28.987Z,101369.53
2022-08-20T11:01:33.858Z,101369.25
2022-08-20T11:05:36.674Z,101368.06
2022-08-20T11:09:38.690Z,101381.41
2022-08-20T11:13:40.149Z,101373.50
2022-08-20T11:17:43.190Z,101392.50
2022-08-20T11:21:44.649Z,101395.63
2022-08-20T11:25:46.526Z,101391.47
2022-08-20T11:29:48.017Z,101398.19
2022-08-20T11:33:49.603Z,101403.44
2022-08-20T11:37:52.201Z,101399.53
2022-08-20T11:41:55.269Z,101398.31
2022-08-20T11:45:57.645Z,101405.25
2022-08-20T11:50:06.576Z,101411.09
2022-08-20T11:54:08.090Z,101409.81
2022-08-20T11:58:10.238Z,101414.75
2022-08-20T12:02:12.649Z,101414.91
2022-08-20T12:06:14.598Z,101417.88
2022-08-20T12:10:16.148Z,101408.94
2022-08-20T12:14:17.594Z,101414.16
2022-08-20T12:18:19.111Z,101427.16
2022-08-20T12:22:24.669Z,101419.44
2022-08-20T12:26:26.923Z,101415.06
2022-08-20T12:30:28.509Z,101422.00
2022-08-20T12:34:29.980Z,101423.63
2022-08-20T12:38:31.584Z,101425.03
2022-08-20T12:42:33.053Z,101425.69
2022-08-20T12:46:34.615Z,101422.66
2022-08-20T12:50:38.284Z,101428.47
2022-08-20T12:54:39.966Z,101428.50
2022-08-20T12:58:41.427Z,101427.09
2022-08-20T13:02:43.125Z,101420.59
2022-08-20T13:06:44.715Z,101426.13
2022-08-20T13:10:47.490Z,101424.38
2022-08-20T13:14:49.027Z,101422.66
2022-08-20T13:18:50.557Z,101424.63
2022-08-20T13:22:53.191Z,101418.38
2022-08-20T13:26:54.701Z,101417.13
2022-08-20T13:30:56.187Z,101419.75
2022-08-20T13:34:57.645Z,101416.47
2022-08-20T13:38:59.125Z,101413.72
2022-08-20T13:43:06.002Z,101417.56
2022-08-20T13:47:14.990Z,101411.75
2022-08-20T13:51:18.157Z,101410.72
2022-08-20T13:55:23.148Z,101403.19
2022-08-20T13:59:24.975Z,101404.75
2022-08-20T14:03:26.493Z,101404.19
2022-08-20T14:07:32.536Z,101396.84
2022-08-20T14:11:34.412Z,101402.53
2022-08-20T14:15:36.855Z,101399.59
2022-08-20T14:19:38.401Z,101405.56
2022-08-20T14:23:40.030Z,101406.13
2022-08-20T14:27:41.998Z,101411.59
2022-08-20T14:31:43.501Z,101413.97
2022-08-20T14:35:45.108Z,101418.63
2022-08-20T14:39:49.552Z,101413.19
2022-08-20T14:43:51.163Z,101409.53
2022-08-20T14:47:57.105Z,101407.75
2022-08-20T14:51:58.556Z,101413.25
2022-08-20T14:56:00.629Z,101411.22
2022-08-20T15:00:02.188Z,101410.84
2022-08-20T15:04:03.874Z,101416.16
2022-08-20T15:08:06.241Z,101409.00
2022-08-20T15:12:08.334Z,101412.00
2022-08-20T15:16:09.876Z,101418.25
2022-08-20T15:20:20.496Z,101413.56
2022-08-20T15:24:22.493Z,101420.63
2022-08-20T15:28:23.940Z,101427.16
2022-08-20T15:32:25.383Z,101427.84
2022-08-20T15:36:26.902Z,101424.22
2022-08-20T15:40:30.823Z,101427.69
2022-08-20T15:44:33.525Z,101428.47
2022-08-20T15:48:40.584Z,101431.94
2022-08-20T15:52:44.525Z,101435.75
2022-08-20T15:57:07.833Z,101441.06
2022-08-20T16:01:24.691Z,101446.31
2022-08-20T16:05:48.161Z,101440.22
2022-08-20T16:10:03.442Z,101447.38
2022-08-20T16:14:20.972Z,101453.81
2022-08-20T16:18:27.819Z,101447.91
2022-08-20T16:22:30.889Z,101452.28
2022-08-20T16:26:46.872Z,101460.16
2022-08-20T16:30:53.560Z,101455.25
2022-08-20T16:35:01.780Z,101455.34
2022-08-20T16:39:11.733Z,101460.97
2022-08-20T16:43:21.476Z,101467.63
2022-08-20T16:47:35.613Z,101464.69
2022-08-20T16:51:46.108Z,101456.22
2022-08-20T16:55:50.172Z,101461.19
2022-08-20T17:00:06.471Z,101462.81
2022-08-20T17:04:20.282Z,101455.81
2022-08-20T17:08:29.763Z,101456.50
2022-08-20T17:12:35.447Z,101448.84
2022-08-20T17:16:50.401Z,101447.00
2022-08-20T17:20:52.811Z,101453.63
2022-08-20T17:24:55.860Z,101456.91
2022-08-20T17:29:00.630Z,101454.84
2022-08-20T17:33:06.379Z,101458.47
2022-08-20T17:37:18.183Z,101459.91
2022-08-20T17:41:26.226Z,101451.84
2022-08-20T17:45:37.339Z,101448.16
2022-08-20T17:50:11.998Z,101448.75
2022-08-20T17:54:46.533Z,101458.19
2022-08-20T17:59:03.140Z,101453.81
2022-08-20T18:03:26.401Z,101457.91
2022-08-20T18:07:39.627Z,101457.53
2022-08-20T18:12:07.957Z,101468.59
2022-08-20T18:16:49.116Z,101472.25
2022-08-20T18:21:15.352Z,101466.16
2022-08-20T18:25:40.924Z,101467.50
2022-08-20T18:29:46.584Z,101472.50
2022-08-20T18:33:48.215Z,101472.50
2022-08-20T18:37:49.819Z,101482.56
2022-08-20T18:42:01.958Z,101487.38
2022-08-20T18:46:13.318Z,101484.41
2022-08-20T18:50:22.834Z,101489.56
2022-08-20T18:54:29.519Z,101490.44
2022-08-20T18:58:51.877Z,101491.13
2022-08-20T19:03:12.456Z,101489.91
2022-08-20T19:07:15.936Z,101485.66
2022-08-20T19:11:47.881Z,101479.00
2022-08-20T19:15:51.902Z,101483.81
2022-08-20T19:20:07.390Z,101484.16
2022-08-20T19:24:11.439Z,101480.66
2022-08-20T19:28:29.873Z,101485.91
2022-08-20T19:32:32.809Z,101478.66
2022-08-20T19:36:36.483Z,101483.75
2022-08-20T19:40:40.150Z,101487.94
2022-08-20T19:45:14.871Z,101489.16
2022-08-20T19:49:26.624Z,101481.78
2022-08-20T19:53:31.143Z,101480.16
2022-08-20T19:57:32.703Z,101475.16
2022-08-20T20:01:35.923Z,101479.00
2022-08-20T20:05:50.790Z,101483.16
2022-08-20T20:09:56.864Z,101485.84
2022-08-20T20:14:11.840Z,101488.22
2022-08-20T20:18:13.707Z,101493.94
2022-08-20T20:22:22.568Z,101496.44
2022-08-20T20:26:29.425Z,101494.66
2022-08-20T20:30:34.757Z,101500.56
2022-08-20T20:34:54.831Z,101499.81
2022-08-20T20:39:04.159Z,101501.31
2022-08-20T20:43:10.352Z,101499.34
2022-08-20T20:47:22.731Z,101501.13
2022-08-20T20:51:28.789Z,101497.31
2022-08-20T20:55:35.361Z,101495.84
2022-08-20T20:59:37.304Z,101499.72
2022-08-20T21:03:38.747Z,101507.53
2022-08-20T21:07:53.527Z,101501.84
2022-08-20T21:11:55.014Z,101494.31
2022-08-20T21:15:56.527Z,101503.69
2022-08-20T21:20:00.840Z,101498.84
2022-08-20T21:24:02.549Z,101498.78
2022-08-20T21:28:04.543Z,101498.97
2022-08-20T21:32:06.244Z,101498.44
2022-08-20T21:36:07.768Z,101501.28
2022-08-20T21:40:10.379Z,101506.56
2022-08-20T21:44:27.186Z,101505.09
2022-08-20T21:48:31.284Z,101498.34
2022-08-20T21:52:32.755Z,101497.47
2022-08-20T21:56:37.957Z,101495.38
2022-08-20T22:00:53.911Z,101490.16
2022-08-20T22:04:55.431Z,101494.13
2022-08-20T22:08:57.192Z,101496.50
2022-08-20T22:12:58.756Z,101491.41
2022-08-20T22:17:00.233Z,101490.63
2022-08-20T22:21:02.282Z,101486.31
2022-08-20T22:25:04.069Z,101484.81
2022-08-20T22:29:10.476Z,101489.09
2022-08-20T22:33:16.097Z,101479.00
2022-08-20T22:37:17.839Z,101487.25
2022-08-20T22:41:20.017Z,101472.56
2022-08-20T22:45:21.488Z,101479.41
2022-08-20T22:49:27.642Z,101474.06
2022-08-20T22:53:29.300Z,101479.81
2022-08-20T22:57:30.821Z,101487.13
2022-08-20T23:01:36.194Z,101484.63
2022-08-20T23:05:38.635Z,101488.25
2022-08-20T23:09:41.867Z,101491.09
2022-08-20T23:13:43.380Z,101488.47
2022-08-20T23:17:45.371Z,101494.66
2022-08-20T23:21:48.400Z,101490.06
2022-08-20T23:25:50.132Z,101483.56
2022-08-20T23:29:51.612Z,101481.22
2022-08-20T23:33:53.056Z,101487.00
2022-08-20T23:37:57.180Z,101485.31
2022-08-20T23:41:59.279Z,101482.31
2022-08-20T23:46:04.119Z,101491.19
2022-08-20T23:50:07.812Z,101487.75
2022-08-20T23:54:09.326Z,101481.22
2022-08-20T23:58:10.790Z,101481.97
